Time;durP1;ratioP1;P1;durP2;ratioP2;P2;SDS_P1;SDS_P2;PMS_P1;PMS_P2;Temp;Humidity;BMP_temperature;BMP_pressure;BME280_temperature;BME280_humidity;BME280_pressure;Samples;Min_cycle;Max_cycle;Signal;HPM_P1;HPM_P2
2022/09/19 00:00:01;;;;;;;8.02;1.92;;;;;;;10.69;100.00;100698.88;8288798;28;20042;-48
2022/09/19 00:04:07;;;;;;;8.95;1.80;;;;;;;10.74;100.00;100703.88;8295004;28;20080;-50
2022/09/19 00:08:08;;;;;;;12.80;1.63;;;;;;;10.75;100.00;100697.47;8295112;28;20030;-48
2022/09/19 00:12:08;;;;;;;10.40;2.42;;;;;;;10.75;100.00;100694.75;8294564;28;20537;-48
2022/09/19 00:16:10;;;;;;;7.17;1.60;;;;;;;10.77;100.00;100707.13;8295241;28;20399;-48
2022/09/19 00:20:11;;;;;;;16.27;2.45;;;;;;;10.78;100.00;100705.31;8294551;28;20681;-49
2022/09/19 00:24:46;;;;;;;12.32;1.63;;;;;;;10.79;100.00;100699.75;8294753;28;20125;-48
2022/09/19 00:28:37;;;;;;;11.30;1.83;;;;;;;10.83;100.00;100700.34;8293995;28;20406;-48
2022/09/19 00:32:38;;;;;;;9.82;2.17;;;;;;;10.90;100.00;100696.97;8294282;28;20073;-48
2022/09/19 00:36:38;;;;;;;13.63;1.83;;;;;;;10.91;100.00;100698.66;8294938;28;20044;-48
2022/09/19 00:40:39;;;;;;;8.00;1.98;;;;;;;10.96;100.00;100707.22;8294173;28;20038;-50
2022/09/19 00:49:03;;;;;;;10.85;1.73;;;;;;;10.97;100.00;100702.66;8312197;27;20392;-48
2022/09/19 00:53:08;;;;;;;16.08;2.75;;;;;;;10.97;100.00;100706.22;8320349;28;20046;-47
2022/09/19 00:57:11;;;;;;;12.15;1.88;;;;;;;11.09;100.00;100702.41;8319905;28;20037;-47
2022/09/19 01:01:14;;;;;;;13.03;1.70;;;;;;;11.12;100.00;100706.66;8316129;28;20098;-49
2022/09/19 01:05:16;;;;;;;11.90;2.13;;;;;;;11.00;100.00;100702.38;8317708;28;20479;-47
2022/09/19 01:09:43;;;;;;;14.80;1.83;;;;;;;10.96;100.00;100712.63;8319086;28;20415;-48
2022/09/19 01:18:08;;;;;;;11.15;1.30;;;;;;;10.92;100.00;100711.19;8392821;27;20469;-48
2022/09/19 01:22:25;;;;;;;13.40;1.83;;;;;;;10.95;100.00;100719.00;8387026;28;20382;-48
2022/09/19 01:26:44;;;;;;;8.43;2.17;;;;;;;10.98;100.00;100726.84;8386806;28;20032;-48
2022/09/19 01:31:16;;;;;;;17.77;1.77;;;;;;;10.94;100.00;100717.31;8384990;28;20070;-48
2022/09/19 01:35:16;;;;;;;15.60;2.78;;;;;;;10.92;100.00;100722.00;8386768;28;20110;-47
2022/09/19 01:39:23;;;;;;;14.23;1.98;;;;;;;10.93;100.00;100739.97;8386575;28;20059;-48
2022/09/19 01:43:24;;;;;;;15.85;2.17;;;;;;;10.85;100.00;100739.78;8386312;28;20482;-52
2022/09/19 01:47:38;;;;;;;8.20;1.15;;;;;;;10.77;100.00;100739.59;8386292;28;20403;-47
2022/09/19 01:51:45;;;;;;;9.07;2.10;;;;;;;10.74;100.00;100739.88;8385729;28;20049;-48
2022/09/19 01:56:01;;;;;;;10.25;2.22;;;;;;;10.73;100.00;100737.31;8385420;28;20500;-48
2022/09/19 02:00:22;;;;;;;14.93;2.20;;;;;;;10.74;100.00;100734.44;8384213;28;20498;-48
2022/09/19 02:04:31;;;;;;;17.45;2.42;;;;;;;10.75;100.00;100740.72;8380237;28;20052;-49
2022/09/19 02:08:55;;;;;;;9.85;1.67;;;;;;;10.73;100.00;100742.72;8385362;28;20040;-46
2022/09/19 02:12:57;;;;;;;14.85;1.63;;;;;;;10.78;100.00;100744.03;8384170;28;20084;-47
2022/09/19 02:17:03;;;;;;;8.35;1.67;;;;;;;10.81;100.00;100741.06;8384559;28;20048;-46
2022/09/19 02:21:11;;;;;;;9.18;1.52;;;;;;;10.87;100.00;100745.91;8384645;28;20116;-46
2022/09/19 02:25:17;;;;;;;13.98;2.00;;;;;;;10.83;100.00;100755.28;8384630;28;20033;-47
2022/09/19 02:29:23;;;;;;;6.80;1.50;;;;;;;10.71;100.00;100761.78;8363499;28;20550;-46
2022/09/19 02:33:24;;;;;;;12.02;2.55;;;;;;;10.64;100.00;100765.19;8362002;28;20037;-48
2022/09/19 02:37:35;;;;;;;18.45;2.60;;;;;;;10.70;100.00;100765.47;8362755;28;20056;-46
2022/09/19 02:41:51;;;;;;;13.50;2.60;;;;;;;10.75;100.00;100760.53;8362129;28;20060;-46
2022/09/19 02:45:55;;;;;;;18.65;2.65;;;;;;;10.72;100.00;100768.91;8361952;28;20033;-46
2022/09/19 02:50:01;;;;;;;12.38;2.05;;;;;;;10.73;100.00;100770.59;8362071;28;20437;-47
2022/09/19 02:54:08;;;;;;;19.75;2.00;;;;;;;10.68;100.00;100772.88;8362258;28;20033;-49
2022/09/19 02:58:11;;;;;;;13.05;1.95;;;;;;;10.66;100.00;100774.84;8362140;28;20397;-49
2022/09/19 03:02:19;;;;;;;17.02;1.90;;;;;;;10.72;100.00;100777.03;8362016;28;20029;-50
2022/09/19 03:06:24;;;;;;;14.43;2.17;;;;;;;10.77;100.00;100766.63;8362244;28;20044;-53
2022/09/19 03:10:30;;;;;;;12.55;1.95;;;;;;;10.91;100.00;100773.53;8360910;28;20029;-49
2022/09/19 03:14:32;;;;;;;16.15;2.20;;;;;;;10.89;100.00;100773.66;8360815;28;20088;-49
2022/09/19 03:18:34;;;;;;;9.52;1.70;;;;;;;10.87;100.00;100764.84;8359678;28;20067;-50
2022/09/19 03:22:34;;;;;;;8.85;1.83;;;;;;;10.81;100.00;100778.91;8360415;28;20086;-49
2022/09/19 03:26:36;;;;;;;11.05;1.75;;;;;;;10.84;100.00;100777.78;8360689;28;20037;-49
2022/09/19 03:30:37;;;;;;;22.17;2.72;;;;;;;10.73;100.00;100772.47;8360516;28;20037;-50
2022/09/19 03:34:37;;;;;;;14.30;1.77;;;;;;;10.73;100.00;100778.72;8360910;28;20037;-52
2022/09/19 03:38:42;;;;;;;16.38;2.08;;;;;;;10.72;100.00;100785.13;8358485;28;20490;-49
2022/09/19 03:42:46;;;;;;;12.50;1.58;;;;;;;10.74;100.00;100793.94;8359975;28;20052;-53
2022/09/19 03:46:47;;;;;;;13.00;1.90;;;;;;;10.76;100.00;100791.09;8360533;28;20136;-52
2022/09/19 03:50:48;;;;;;;16.80;2.80;;;;;;;10.82;100.00;100791.44;8360881;28;20505;-53
2022/09/19 03:54:48;;;;;;;13.10;2.30;;;;;;;10.83;100.00;100795.84;8359726;28;21596;-50
2022/09/19 03:58:48;;;;;;;17.92;1.77;;;;;;;10.86;100.00;100798.28;8360068;28;20041;-50
2022/09/19 04:02:49;;;;;;;10.30;2.30;;;;;;;10.88;100.00;100801.72;8350899;28;20045;-51
2022/09/19 04:06:49;;;;;;;12.30;1.90;;;;;;;10.93;100.00;100810.28;8353440;28;20029;-50
2022/09/19 04:10:51;;;;;;;13.52;1.75;;;;;;;10.98;100.00;100808.00;8352997;28;20029;-49
2022/09/19 04:14:52;;;;;;;15.57;2.30;;;;;;;11.02;100.00;100814.00;8351582;28;20741;-51
2022/09/19 04:18:52;;;;;;;16.35;1.58;;;;;;;11.05;100.00;100811.03;8355620;28;20065;-51
2022/09/19 04:22:53;;;;;;;12.90;2.13;;;;;;;11.08;100.00;100819.75;8355130;28;20583;-52
2022/09/19 04:26:53;;;;;;;16.50;2.80;;;;;;;11.01;100.00;100815.84;8355416;28;20433;-51
2022/09/19 04:30:55;;;;;;;7.05;1.73;;;;;;;11.01;100.00;100818.56;8353410;28;20029;-53
2022/09/19 04:34:57;;;;;;;7.75;2.08;;;;;;;11.08;100.00;100818.88;8353724;28;20132;-50
2022/09/19 04:39:02;;;;;;;14.52;2.10;;;;;;;11.16;100.00;100828.03;8353964;28;20487;-52
2022/09/19 04:43:03;;;;;;;11.50;2.22;;;;;;;11.28;100.00;100834.19;8345673;28;20068;-53
2022/09/19 04:47:06;;;;;;;12.40;1.95;;;;;;;11.31;100.00;100842.03;8348772;28;20037;-52
2022/09/19 04:51:06;;;;;;;7.68;1.85;;;;;;;11.32;100.00;100838.34;8354212;28;20033;-52
2022/09/19 04:55:08;;;;;;;16.58;2.00;;;;;;;11.38;100.00;100844.06;8353870;28;20053;-51
2022/09/19 04:59:08;;;;;;;16.17;1.55;;;;;;;11.43;100.00;100851.75;8348529;28;20032;-54
2022/09/19 05:03:12;;;;;;;11.95;1.50;;;;;;;11.45;100.00;100849.78;8351519;28;20037;-50
2022/09/19 05:07:13;;;;;;;9.87;2.13;;;;;;;11.50;100.00;100855.66;8345247;28;20072;-52
2022/09/19 05:11:20;;;;;;;13.20;1.65;;;;;;;11.52;100.00;100859.91;8351750;28;20072;-53
2022/09/19 05:15:22;;;;;;;12.30;1.58;;;;;;;11.57;100.00;100854.97;8353820;28;20041;-51
2022/09/19 05:19:22;;;;;;;10.25;1.75;;;;;;;11.60;100.00;100868.22;8353021;28;20120;-52
2022/09/19 05:23:24;;;;;;;10.23;1.40;;;;;;;11.63;100.00;100865.28;8353764;28;20033;-50
2022/09/19 05:27:25;;;;;;;13.30;1.77;;;;;;;11.69;100.00;100864.69;8349690;28;20067;-52
2022/09/19 05:31:25;;;;;;;14.63;1.67;;;;;;;11.74;100.00;100857.00;8348233;28;20080;-52
2022/09/19 05:35:26;;;;;;;16.70;1.60;;;;;;;11.92;100.00;100869.88;8342408;28;20367;-53
2022/09/19 05:39:27;;;;;;;13.50;1.50;;;;;;;11.89;100.00;100865.56;8352765;28;20509;-54
2022/09/19 05:43:27;;;;;;;14.18;1.60;;;;;;;11.95;100.00;100880.44;8352136;28;20045;-50
2022/09/19 05:47:28;;;;;;;11.57;1.70;;;;;;;11.77;100.00;100881.09;8353639;28;20159;-53
2022/09/19 05:51:28;;;;;;;15.18;1.50;;;;;;;11.70;100.00;100871.84;8353013;28;20494;-54
2022/09/19 05:55:29;;;;;;;14.82;2.85;;;;;;;11.71;100.00;100887.09;8349883;28;20495;-52
2022/09/19 05:59:29;;;;;;;20.95;2.05;;;;;;;11.74;100.00;100886.81;8352295;28;20029;-52
2022/09/19 06:03:31;;;;;;;11.70;1.53;;;;;;;11.78;100.00;100900.94;8355207;28;20426;-51
2022/09/19 06:07:31;;;;;;;16.02;1.92;;;;;;;11.84;100.00;100906.63;8353077;28;20887;-53
2022/09/19 06:11:31;;;;;;;10.88;2.00;;;;;;;11.91;100.00;100912.38;8357905;28;20435;-53
2022/09/19 06:15:34;;;;;;;20.27;2.10;;;;;;;11.99;100.00;100915.25;8353403;28;20107;-50
2022/09/19 06:19:34;;;;;;;13.95;2.13;;;;;;;12.11;100.00;100918.69;8385535;28;20041;-52
2022/09/19 06:23:34;;;;;;;12.35;2.00;;;;;;;12.19;100.00;100924.25;8389692;28;20064;-52
2022/09/19 06:27:36;;;;;;;9.68;2.30;;;;;;;12.22;100.00;100926.66;8389155;28;20121;-51
2022/09/19 06:31:37;;;;;;;13.15;1.52;;;;;;;12.18;100.00;100928.81;8387853;28;20047;-51
2022/09/19 06:35:38;;;;;;;16.30;2.58;;;;;;;12.19;100.00;100937.78;8389083;28;20434;-53
2022/09/19 06:39:39;;;;;;;13.90;2.20;;;;;;;12.21;100.00;100941.22;8387328;28;20414;-54
2022/09/19 06:43:39;;;;;;;18.80;2.53;;;;;;;12.23;100.00;100956.34;8386405;28;20518;-53
2022/09/19 06:47:39;;;;;;;11.70;1.70;;;;;;;12.27;100.00;100951.50;8393094;28;20401;-52
2022/09/19 06:51:40;;;;;;;11.50;1.77;;;;;;;12.36;100.00;100950.66;8394114;28;20033;-52
2022/09/19 06:55:41;;;;;;;18.77;1.55;;;;;;;12.45;100.00;100955.25;8390209;28;20044;-54
2022/09/19 06:59:41;;;;;;;16.90;1.88;;;;;;;12.59;100.00;100957.53;8399306;28;20184;-54
2022/09/19 07:03:41;;;;;;;14.30;1.90;;;;;;;12.71;100.00;100962.66;8393707;28;20061;-52
2022/09/19 07:07:42;;;;;;;12.88;1.65;;;;;;;12.78;100.00;100963.78;8389768;28;20177;-54
2022/09/19 07:11:43;;;;;;;22.52;2.92;;;;;;;12.86;100.00;100974.78;8393698;28;20076;-53
2022/09/19 07:15:44;;;;;;;11.15;2.03;;;;;;;12.90;100.00;100970.78;8392570;28;20063;-54
2022/09/19 07:19:44;;;;;;;15.43;1.67;;;;;;;12.99;100.00;100978.09;8390314;28;20187;-53
2022/09/19 07:23:47;;;;;;;16.00;2.05;;;;;;;13.07;100.00;100988.22;8389750;28;20076;-54
2022/09/19 07:27:53;;;;;;;13.57;1.95;;;;;;;13.13;100.00;100995.78;8382236;28;20575;-52
2022/09/19 07:31:54;;;;;;;11.02;2.00;;;;;;;13.07;100.00;101001.81;8387726;28;20123;-53
2022/09/19 07:35:55;;;;;;;17.48;2.45;;;;;;;13.07;100.00;100993.66;8391649;28;20040;-53
2022/09/19 07:39:55;;;;;;;10.20;1.45;;;;;;;13.10;100.00;100996.94;8390636;28;20085;-54
2022/09/19 07:43:56;;;;;;;16.25;2.50;;;;;;;13.22;100.00;100995.78;8390959;28;20036;-52
2022/09/19 07:47:56;;;;;;;11.95;1.83;;;;;;;13.42;100.00;101002.88;8391292;28;20051;-55
2022/09/19 07:51:57;;;;;;;18.77;2.40;;;;;;;13.74;100.00;101007.94;8390632;28;20032;-52
2022/09/19 07:55:57;;;;;;;8.75;1.85;;;;;;;13.98;98.05;101023.69;8390717;28;20043;-54
2022/09/19 07:59:57;;;;;;;12.52;1.42;;;;;;;14.13;96.22;101020.34;8387778;28;20032;-52
2022/09/19 08:03:58;;;;;;;18.85;2.15;;;;;;;14.28;97.23;101023.44;8379783;28;20155;-53
2022/09/19 08:07:58;;;;;;;12.38;1.95;;;;;;;14.11;94.54;101026.91;8383519;28;20128;-50
2022/09/19 08:12:01;;;;;;;15.38;1.70;;;;;;;13.98;94.09;101027.28;8387545;28;20040;-54
2022/09/19 08:16:01;;;;;;;11.90;1.60;;;;;;;14.09;95.45;101035.22;8390671;28;20451;-51
2022/09/19 08:20:03;;;;;;;12.30;1.80;;;;;;;14.09;95.02;101037.94;8390883;28;20086;-50
2022/09/19 08:24:03;;;;;;;15.82;1.80;;;;;;;14.23;94.59;101042.94;8390438;28;20277;-51
2022/09/19 08:28:04;;;;;;;18.55;1.88;;;;;;;14.38;94.26;101049.59;8388734;28;20040;-53
2022/09/19 08:32:06;;;;;;;23.00;2.67;;;;;;;14.58;94.29;101051.16;8388402;28;20037;-51
2022/09/19 08:36:06;;;;;;;14.27;1.40;;;;;;;14.67;91.93;101050.25;8385403;28;20037;-54
2022/09/19 08:40:15;;;;;;;7.15;1.75;;;;;;;14.94;92.12;101061.06;8385990;28;20040;-50
2022/09/19 08:44:39;;;;;;;12.75;1.38;;;;;;;16.08;90.14;101052.75;8388158;28;20104;-51
2022/09/19 08:49:02;;;;;;;15.15;2.30;;;;;;;16.56;85.03;101059.31;8388551;28;20036;-52
2022/09/19 08:53:06;;;;;;;12.30;1.60;;;;;;;15.93;86.15;101065.28;8380749;28;20028;-52
2022/09/19 08:57:20;;;;;;;17.87;1.97;;;;;;;15.98;87.62;101062.94;8389811;28;20839;-51
2022/09/19 09:01:22;;;;;;;10.85;2.40;;;;;;;16.86;87.30;101066.03;8369592;28;20482;-51
2022/09/19 09:05:44;;;;;;;12.23;1.35;;;;;;;17.17;82.78;101064.41;8389491;28;20035;-50
2022/09/19 09:10:04;;;;;;;6.72;1.20;;;;;;;16.98;83.99;101059.22;8388549;28;20044;-52
2022/09/19 09:14:30;;;;;;;10.15;2.00;;;;;;;17.16;80.65;101062.66;8389502;28;20115;-51
2022/09/19 09:18:47;;;;;;;11.30;1.40;;;;;;;17.08;82.31;101065.41;8383073;28;20417;-53
2022/09/19 09:22:59;;;;;;;8.00;1.60;;;;;;;16.94;81.78;101069.66;8388835;28;20032;-52
2022/09/19 09:27:02;;;;;;;9.38;1.30;;;;;;;16.70;83.62;101063.28;8387333;28;20512;-51
2022/09/19 09:31:27;;;;;;;11.35;2.17;;;;;;;17.09;83.08;101069.84;8387301;28;20060;-55
2022/09/19 09:35:35;;;;;;;11.77;1.70;;;;;;;16.89;82.17;101071.16;8389212;28;20048;-52
2022/09/19 09:40:13;;;;;;;11.02;1.65;;;;;;;17.91;79.29;101064.19;8394065;28;20036;-54
2022/09/19 09:44:43;;;;;;;10.07;1.25;;;;;;;18.77;76.15;101075.03;8390295;28;20124;-52
2022/09/19 09:48:44;;;;;;;11.38;1.63;;;;;;;19.78;72.49;101064.66;8394298;28;20051;-54
2022/09/19 09:52:59;;;;;;;14.55;1.83;;;;;;;21.75;67.14;101076.09;8395012;28;20041;-53
2022/09/19 09:57:10;;;;;;;12.70;1.42;;;;;;;20.46;68.05;101076.28;8394136;28;20036;-51
2022/09/19 10:06:13;;;;;;;10.15;1.45;;;;;;;21.12;68.28;101067.81;8391887;28;20025;-52
2022/09/19 10:10:19;;;;;;;13.68;1.83;;;;;;;23.08;61.79;101079.19;8388771;28;20058;-54
2022/09/19 10:14:23;;;;;;;8.23;1.20;;;;;;;23.54;60.10;101065.50;8366654;28;20075;-51
2022/09/19 10:18:28;;;;;;;7.35;1.02;;;;;;;22.13;64.05;101068.28;8381196;28;20082;-51
2022/09/19 10:22:29;;;;;;;5.22;1.20;;;;;;;19.83;69.51;101067.69;8381136;28;20106;-51
2022/09/19 10:26:30;;;;;;;7.15;0.95;;;;;;;18.53;74.00;101075.13;8386239;28;20829;-52
2022/09/19 10:30:36;;;;;;;3.80;0.98;;;;;;;19.76;71.40;101072.25;8379402;28;20039;-52
2022/09/19 10:34:39;;;;;;;8.32;0.93;;;;;;;21.85;66.25;101075.72;8377400;28;20114;-54
2022/09/19 10:38:59;;;;;;;8.85;1.10;;;;;;;19.35;72.90;101075.34;8386435;28;20048;-50
2022/09/19 10:43:01;;;;;;;10.70;1.42;;;;;;;18.09;76.47;101079.38;8388301;28;20040;-50
2022/09/19 10:47:03;;;;;;;10.48;1.27;;;;;;;18.57;76.07;101079.22;8354033;28;20102;-51
2022/09/19 10:51:08;;;;;;;7.50;1.85;;;;;;;18.78;74.23;101079.44;8356145;28;20174;-51
2022/09/19 10:55:20;;;;;;;7.13;1.00;;;;;;;20.53;70.19;101071.72;8347056;28;20512;-50
2022/09/19 10:59:36;;;;;;;10.63;1.20;;;;;;;18.64;74.65;101057.44;8354063;28;20124;-51
2022/09/19 11:03:39;;;;;;;6.43;0.80;;;;;;;18.77;73.23;101058.56;8351158;28;20071;-51
2022/09/19 11:07:55;;;;;;;7.80;1.08;;;;;;;22.00;63.92;101052.56;8353312;28;20594;-50
2022/09/19 11:12:20;;;;;;;5.13;1.02;;;;;;;23.76;58.15;101046.81;8368833;28;20045;-50
2022/09/19 11:16:29;;;;;;;6.35;0.95;;;;;;;24.77;55.39;101041.50;8359247;28;20049;-51
2022/09/19 11:20:40;;;;;;;5.43;0.60;;;;;;;25.09;54.23;101037.69;8357417;28;20033;-50
2022/09/19 11:25:04;;;;;;;8.35;1.08;;;;;;;25.59;53.41;101038.66;8352469;28;20064;-50
2022/09/19 11:29:44;;;;;;;9.18;1.02;;;;;;;25.41;53.93;101044.13;8354345;28;20048;-52
2022/09/19 11:33:56;;;;;;;9.23;1.73;;;;;;;25.87;52.66;101039.91;8353726;28;20478;-51
2022/09/19 11:38:27;;;;;;;10.38;1.25;;;;;;;25.17;53.81;101031.91;8353778;28;20041;-51
2022/09/19 11:43:01;;;;;;;6.75;0.98;;;;;;;25.58;52.48;101035.03;8350408;28;20498;-51
2022/09/19 11:47:23;;;;;;;4.13;0.90;;;;;;;26.34;51.98;101042.00;8342062;28;20033;-52
2022/09/19 11:51:50;;;;;;;5.10;1.02;;;;;;;25.33;52.51;101042.47;8345278;28;20487;-52
2022/09/19 11:56:01;;;;;;;9.77;1.52;;;;;;;25.08;52.22;101033.25;8355487;28;20040;-51
2022/09/19 12:00:20;;;;;;;6.72;1.13;;;;;;;25.40;53.63;101040.50;8348694;28;20045;-51
2022/09/19 12:04:40;;;;;;;7.47;1.40;;;;;;;25.09;51.50;101029.41;8342953;28;20177;-51
2022/09/19 12:13:24;;;;;;;6.85;1.15;;;;;;;26.72;48.53;101031.53;8332935;27;20418;-52
2022/09/19 12:17:32;;;;;;;8.18;1.10;;;;;;;26.20;50.94;101034.91;8306037;28;20254;-49
2022/09/19 12:21:38;;;;;;;9.45;1.02;;;;;;;26.82;48.61;101028.22;8300200;28;20044;-49
2022/09/19 12:25:39;;;;;;;8.65;1.30;;;;;;;25.41;50.22;101031.16;8309860;28;20073;-53
2022/09/19 12:29:53;;;;;;;6.10;1.05;;;;;;;23.62;55.14;101036.81;8330379;28;20314;-50
2022/09/19 12:34:14;;;;;;;7.75;1.45;;;;;;;23.27;54.48;101029.81;8347047;28;20033;-49
2022/09/19 12:38:39;;;;;;;7.70;1.05;;;;;;;24.03;52.02;101018.13;8345948;28;20087;-49
2022/09/19 12:42:51;;;;;;;6.38;0.90;;;;;;;22.22;54.77;101012.00;8302166;28;20128;-49
2022/09/19 12:47:01;;;;;;;3.97;0.70;;;;;;;21.28;57.43;101007.91;8330415;28;20449;-49
2022/09/19 12:51:08;;;;;;;6.93;1.10;;;;;;;21.05;56.54;100998.16;8324811;28;20112;-49
2022/09/19 12:55:33;;;;;;;10.75;1.42;;;;;;;20.48;57.71;101016.50;8317134;28;20092;-49
2022/09/19 12:59:35;;;;;;;3.95;0.57;;;;;;;18.19;66.25;101041.72;8314006;28;20273;-49
2022/09/19 13:03:42;;;;;;;7.57;0.80;;;;;;;16.92;73.68;101047.09;8319294;28;20524;-49
2022/09/19 13:07:51;;;;;;;5.53;0.60;;;;;;;16.32;79.26;101039.25;8317325;28;20420;-49
2022/09/19 13:11:59;;;;;;;3.00;0.60;;;;;;;15.89;83.06;101044.81;8372723;22;20402;-52
2022/09/19 13:16:06;;;;;;;3.50;0.32;;;;;;;15.76;82.19;101052.59;8359703;28;20493;-49
2022/09/19 13:28:59;;;;;;;6.38;0.98;;;;;;;14.74;97.47;101062.25;8378870;27;20396;-49
2022/09/19 13:33:00;;;;;;;7.53;1.00;;;;;;;14.30;100.00;101076.66;8379683;28;20036;-50
2022/09/19 13:37:05;;;;;;;7.13;1.40;;;;;;;14.01;100.00;101053.31;8396615;28;20139;-52
2022/09/19 13:41:12;;;;;;;6.35;1.05;;;;;;;14.05;100.00;101061.00;8384106;28;20105;-49
2022/09/19 13:45:37;;;;;;;4.95;0.85;;;;;;;13.97;100.00;101069.09;8379541;28;20159;-49
2022/09/19 13:49:44;;;;;;;6.97;0.93;;;;;;;14.16;100.00;101063.56;8385814;28;20035;-49
2022/09/19 13:54:07;;;;;;;8.13;1.30;;;;;;;14.24;100.00;101066.38;8385059;28;20032;-51
2022/09/19 13:58:36;;;;;;;8.88;1.20;;;;;;;14.43;100.00;101060.88;8389340;28;20037;-49
2022/09/19 14:02:41;;;;;;;8.27;1.20;;;;;;;14.43;100.00;101047.28;8378530;28;20452;-50
2022/09/19 14:06:43;;;;;;;6.80;1.00;;;;;;;14.67;100.00;101052.13;8384479;28;20037;-50
2022/09/19 14:10:49;;;;;;;4.47;0.70;;;;;;;14.69;100.00;101044.66;8378216;28;20024;-49
2022/09/19 14:19:02;;;;;;;3.60;0.90;;;;;;;15.06;95.28;101032.59;8388332;27;20398;-49
2022/09/19 14:23:03;;;;;;;7.65;1.00;;;;;;;15.37;94.37;101041.25;8366933;28;20578;-53
2022/09/19 14:27:31;;;;;;;3.75;0.82;;;;;;;15.61;95.63;101039.53;8352317;28;20313;-53
2022/09/19 14:32:11;;;;;;;12.32;1.33;;;;;;;15.63;92.90;101040.25;8351983;28;20405;-50
2022/09/19 14:41:01;;;;;;;7.70;1.00;;;;;;;15.70;95.96;101044.03;8386661;27;20406;-49
2022/09/19 14:50:17;;;;;;;10.77;1.35;;;;;;;15.84;94.43;101039.84;8374102;27;20378;-49
2022/09/19 14:54:31;;;;;;;6.93;1.70;;;;;;;15.96;93.83;101037.69;8335871;28;20045;-51
2022/09/19 14:58:33;;;;;;;11.00;1.87;;;;;;;16.13;93.35;101028.59;8337969;28;20059;-53
2022/09/19 15:02:34;;;;;;;6.60;1.40;;;;;;;16.15;92.21;101023.81;8342797;28;20043;-50
2022/09/19 15:06:45;;;;;;;8.23;1.77;;;;;;;16.11;94.51;101025.16;8346622;28;20278;-50
2022/09/19 15:10:46;;;;;;;6.88;1.35;;;;;;;16.43;91.20;101014.34;8342205;28;20516;-49
2022/09/19 15:14:48;;;;;;;2.97;0.73;;;;;;;16.55;91.92;101011.19;8344578;28;20406;-51
2022/09/19 15:18:52;;;;;;;10.30;1.25;;;;;;;16.58;89.97;101013.59;8332349;28;20497;-50
2022/09/19 15:22:56;;;;;;;7.78;1.13;;;;;;;16.87;88.57;101013.13;8342181;28;20048;-49
2022/09/19 15:26:57;;;;;;;12.07;1.35;;;;;;;16.96;86.49;101012.13;8345453;28;20452;-51
2022/09/19 15:30:59;;;;;;;7.18;1.50;;;;;;;16.87;85.56;101013.13;8342435;28;20128;-49
2022/09/19 15:35:18;;;;;;;6.10;2.05;;;;;;;17.01;86.38;101010.59;8340283;28;20044;-50
2022/09/19 15:39:19;;;;;;;11.15;1.63;;;;;;;16.81;84.44;101016.53;8339682;28;20072;-51
2022/09/19 15:43:19;;;;;;;5.00;1.42;;;;;;;16.67;86.82;101025.38;8340892;28;20041;-49
2022/09/19 15:47:28;;;;;;;8.52;2.22;;;;;;;16.35;93.15;101022.53;8343485;28;20590;-49
2022/09/19 15:51:35;;;;;;;14.38;2.35;;;;;;;15.77;96.04;101032.47;8335366;28;20532;-50
2022/09/19 15:55:35;;;;;;;6.70;1.02;;;;;;;15.34;100.00;101030.63;8341872;28;20538;-50
2022/09/19 15:59:45;;;;;;;8.73;1.27;;;;;;;15.19;100.00;101024.88;8327137;28;20414;-51
2022/09/19 16:03:55;;;;;;;7.13;1.40;;;;;;;15.27;100.00;101027.69;8321029;28;20045;-49
2022/09/19 16:09:01;;;;;;;7.95;1.33;;;;;;;15.36;100.00;101018.56;8317961;28;20577;-50
2022/09/19 16:12:29;;;;;;;7.40;1.10;;;;;;;15.39;100.00;101029.16;8320131;28;20041;-51
2022/09/19 16:16:35;;;;;;;8.98;2.85;;;;;;;15.53;100.00;101020.41;8318662;28;20099;-49
2022/09/19 16:20:36;;;;;;;7.85;1.08;;;;;;;15.50;95.26;101020.72;8313149;28;20503;-51
2022/09/19 16:24:45;;;;;;;5.32;0.85;;;;;;;15.51;94.77;101027.91;8310746;28;20042;-51
2022/09/19 16:28:54;;;;;;;6.88;1.08;;;;;;;15.50;95.42;101025.31;8311985;28;20454;-49
2022/09/19 16:32:54;;;;;;;5.07;0.93;;;;;;;15.56;94.89;101036.44;8312264;28;20575;-51
2022/09/19 16:36:56;;;;;;;6.88;1.40;;;;;;;15.57;95.71;101029.97;8312030;28;20041;-50
2022/09/19 16:41:02;;;;;;;9.80;1.35;;;;;;;15.46;98.95;101030.22;8307682;28;20072;-49
2022/09/19 16:45:20;;;;;;;7.25;1.83;;;;;;;15.34;99.42;101031.47;8313599;28;20049;-51
2022/09/19 16:49:20;;;;;;;8.60;1.55;;;;;;;15.07;100.00;101039.75;8309763;28;20045;-53
2022/09/19 16:53:21;;;;;;;10.60;1.65;;;;;;;15.07;100.00;101050.63;8318959;28;20119;-50
2022/09/19 16:57:22;;;;;;;11.68;2.70;;;;;;;15.15;98.93;101048.00;8319683;28;20041;-50
2022/09/19 17:01:22;;;;;;;6.78;1.27;;;;;;;15.09;100.00;101047.75;8320057;28;20037;-50
2022/09/19 17:05:29;;;;;;;6.53;1.05;;;;;;;15.04;100.00;101050.94;8316913;28;20688;-49
2022/09/19 17:09:31;;;;;;;9.20;3.10;;;;;;;15.23;97.10;101053.53;8309858;28;20132;-50
2022/09/19 17:13:31;;;;;;;9.00;3.60;;;;;;;15.30;96.55;101051.88;8309699;28;20033;-49
2022/09/19 17:17:32;;;;;;;6.30;2.13;;;;;;;15.27;96.28;101057.66;8316968;28;20664;-49
2022/09/19 17:21:32;;;;;;;16.98;2.60;;;;;;;15.22;96.89;101064.59;8318050;28;20038;-49
2022/09/19 17:25:55;;;;;;;9.43;2.97;;;;;;;15.21;95.54;101058.28;8315750;28;20030;-51
2022/09/19 17:29:56;;;;;;;11.00;2.83;;;;;;;15.19;96.24;101065.72;8316795;28;20581;-52
2022/09/19 17:33:56;;;;;;;14.30;4.10;;;;;;;15.15;96.17;101061.63;8315622;28;20443;-49
2022/09/19 17:37:57;;;;;;;8.05;1.52;;;;;;;15.14;95.62;101068.09;8316197;28;20059;-49
2022/09/19 17:41:59;;;;;;;8.85;1.52;;;;;;;15.10;95.42;101063.94;8316750;28;20037;-50
2022/09/19 17:46:02;;;;;;;6.10;1.10;;;;;;;15.08;95.48;101062.41;8317076;28;20068;-49
2022/09/19 17:50:03;;;;;;;11.17;1.33;;;;;;;15.03;98.10;101072.91;8316130;28;20041;-49
2022/09/19 17:54:03;;;;;;;10.40;1.30;;;;;;;14.93;98.21;101078.44;8317557;28;20091;-53
2022/09/19 17:58:06;;;;;;;9.85;1.02;;;;;;;14.88;98.78;101086.19;8316240;28;20034;-49
2022/09/19 18:03:23;;;;;;;8.32;1.60;;;;;;;14.76;99.73;101090.16;8316308;28;20037;-49
2022/09/19 18:06:29;;;;;;;5.47;1.20;;;;;;;14.80;100.00;101090.72;8315646;28;20037;-50
2022/09/19 18:10:31;;;;;;;11.30;1.52;;;;;;;14.76;100.00;101095.59;8316143;28;20044;-49
2022/09/19 18:14:32;;;;;;;8.35;1.00;;;;;;;14.75;100.00;101099.34;8316278;28;20037;-49
2022/09/19 18:18:36;;;;;;;9.75;1.25;;;;;;;14.73;100.00;101106.78;8315469;28;20022;-52
2022/09/19 18:22:36;;;;;;;6.70;0.95;;;;;;;14.81;98.81;101103.31;8315700;28;20065;-51
2022/09/19 18:26:37;;;;;;;11.20;1.70;;;;;;;14.88;96.23;101115.31;8316226;28;20084;-49
2022/09/19 18:30:39;;;;;;;8.27;1.65;;;;;;;14.88;95.61;101118.88;8315082;28;20084;-50
2022/09/19 18:34:39;;;;;;;9.43;0.95;;;;;;;14.85;95.64;101116.44;8315244;28;20033;-50
2022/09/19 18:38:40;;;;;;;3.87;0.77;;;;;;;14.82;95.34;101122.19;8312401;28;20129;-50
2022/09/19 18:42:41;;;;;;;8.93;1.80;;;;;;;14.80;95.19;101126.97;8313736;28;20645;-50
2022/09/19 18:46:41;;;;;;;8.95;2.58;;;;;;;14.77;94.21;101132.72;8312613;28;20045;-49
2022/09/19 18:50:42;;;;;;;8.82;5.50;;;;;;;14.77;93.36;101137.28;8315991;28;20037;-50
2022/09/19 18:54:42;;;;;;;8.48;2.95;;;;;;;14.73;93.84;101144.88;8315048;28;20056;-51
2022/09/19 18:58:43;;;;;;;6.60;1.80;;;;;;;14.66;91.86;101138.34;8312193;28;20521;-50
2022/09/19 19:02:43;;;;;;;7.35;1.10;;;;;;;14.64;89.43;101151.25;8317834;28;20282;-51
2022/09/19 19:06:44;;;;;;;7.05;0.98;;;;;;;14.59;88.29;101163.59;8317387;28;20599;-51
2022/09/19 19:10:44;;;;;;;6.15;0.77;;;;;;;14.52;87.73;101157.06;8316510;28;20041;-52
2022/09/19 19:14:54;;;;;;;6.43;0.60;;;;;;;14.46;88.55;101163.97;8317616;28;20040;-49
2022/09/19 19:18:56;;;;;;;4.55;0.90;;;;;;;14.37;90.49;101159.41;8315404;28;20041;-53
2022/09/19 19:22:56;;;;;;;10.82;2.17;;;;;;;14.27;91.46;101157.72;8315422;28;20458;-49
2022/09/19 19:26:57;;;;;;;9.90;6.13;;;;;;;14.17;91.15;101151.41;8309976;28;20068;-52
2022/09/19 19:30:59;;;;;;;26.25;10.82;;;;;;;14.12;91.37;101160.00;8311671;28;20068;-50